createdAt,value
2018-04-24T00:00:24.520Z,20.50
2018-04-24T00:01:28.750Z,19.00
2018-04-24T00:02:32.865Z,21.00
2018-04-24T00:03:36.978Z,19.00
2018-04-24T00:04:41.101Z,18.50
2018-04-24T00:05:45.231Z,23.00
2018-04-24T00:06:49.438Z,18.50
2018-04-24T00:07:53.855Z,13.50
2018-04-24T00:08:58.234Z,19.50
2018-04-24T00:10:02.970Z,19.50
2018-04-24T00:11:07.084Z,17.00
2018-04-24T00:12:11.488Z,17.50
2018-04-24T00:13:15.671Z,21.50
2018-04-24T00:14:20.112Z,15.50
2018-04-24T00:15:24.758Z,24.50
2018-04-24T00:16:28.915Z,17.00
2018-04-24T00:17:33.159Z,14.00
2018-04-24T00:18:37.308Z,27.50
2018-04-24T00:19:41.448Z,12.50
2018-04-24T00:20:45.725Z,26.50
2018-04-24T00:21:49.940Z,11.50
2018-04-24T00:22:54.063Z,28.50
2018-04-24T00:23:58.880Z,20.00
2018-04-24T00:25:03.809Z,24.50
2018-04-24T00:26:07.939Z,10.00
2018-04-24T00:27:12.464Z,26.00
2018-04-24T00:28:16.576Z,17.50
2018-04-24T00:29:20.721Z,18.00
2018-04-24T00:30:25.011Z,19.50
2018-04-24T00:31:29.251Z,16.00
2018-04-24T00:32:33.360Z,14.50
2018-04-24T00:33:37.801Z,22.00
2018-04-24T00:34:41.953Z,23.00
2018-04-24T00:35:46.328Z,17.50
2018-04-24T00:36:50.531Z,19.50
2018-04-24T00:37:54.679Z,22.00
2018-04-24T00:38:58.896Z,15.50
2018-04-24T00:40:04.143Z,24.50
2018-04-24T00:41:08.269Z,24.50
2018-04-24T00:42:12.381Z,25.50
2018-04-24T00:43:16.485Z,14.00
2018-04-24T00:44:20.676Z,16.00
2018-04-24T00:45:25.287Z,25.00
2018-04-24T00:46:29.735Z,21.00
2018-04-24T00:47:33.879Z,20.50
2018-04-24T00:48:38.116Z,17.00
2018-04-24T00:49:42.444Z,14.00
2018-04-24T00:50:46.630Z,22.00
2018-04-24T00:51:50.786Z,17.50
2018-04-24T00:52:55.230Z,19.50
2018-04-24T00:53:59.360Z,18.00
2018-04-24T00:55:03.614Z,17.50
2018-04-24T00:56:08.853Z,12.00
2018-04-24T00:57:13.120Z,14.00
2018-04-24T00:58:17.599Z,12.00
2018-04-24T00:59:21.839Z,16.50
2018-04-24T01:00:25.969Z,12.00
2018-04-24T01:01:30.169Z,10.50
2018-04-24T01:02:34.358Z,17.50
2018-04-24T01:03:38.555Z,16.00
2018-04-24T01:04:43.084Z,17.00
2018-04-24T01:05:47.193Z,16.00
2018-04-24T01:06:51.442Z,21.00
2018-04-24T01:07:55.576Z,15.50
2018-04-24T01:09:00.063Z,21.50
2018-04-24T01:10:04.348Z,14.50
2018-04-24T01:11:09.025Z,17.50
2018-04-24T01:12:13.778Z,9.00
2018-04-24T01:13:18.192Z,23.00
2018-04-24T01:14:23.303Z,19.50
2018-04-24T01:15:27.659Z,19.00
2018-04-24T01:16:31.897Z,17.50
2018-04-24T01:17:36.453Z,15.00
2018-04-24T01:18:40.583Z,18.50
2018-04-24T01:19:44.703Z,21.00
2018-04-24T01:20:48.814Z,15.00
2018-04-24T01:21:53.117Z,14.50
2018-04-24T01:22:57.266Z,19.50
2018-04-24T01:24:01.801Z,20.00
2018-04-24T01:25:05.937Z,13.00
2018-04-24T01:26:10.994Z,16.50
2018-04-24T01:27:15.237Z,15.00
2018-04-24T01:28:19.373Z,14.50
2018-04-24T01:29:23.493Z,15.00
2018-04-24T01:30:27.910Z,25.00
2018-04-24T01:31:32.027Z,22.50
2018-04-24T01:32:36.244Z,18.00
2018-04-24T01:33:40.411Z,21.50
2018-04-24T01:34:44.529Z,12.00
2018-04-24T01:35:49.103Z,14.50
2018-04-24T01:36:53.344Z,21.00
2018-04-24T01:37:57.461Z,11.50
2018-04-24T01:39:01.684Z,17.50
2018-04-24T01:40:05.876Z,16.00
2018-04-24T01:41:10.586Z,18.50
2018-04-24T01:42:15.098Z,23.00
2018-04-24T01:43:19.232Z,15.00
2018-04-24T01:44:23.926Z,22.00
2018-04-24T01:45:28.352Z,20.00
2018-04-24T01:46:32.540Z,14.00
2018-04-24T01:47:36.665Z,13.50
2018-04-24T01:48:41.190Z,16.50
2018-04-24T01:49:45.276Z,12.50
2018-04-24T01:50:49.413Z,22.00
2018-04-24T01:51:53.576Z,17.50
2018-04-24T01:52:57.676Z,12.50
2018-04-24T01:54:01.915Z,14.50
2018-04-24T01:55:07.167Z,12.50
2018-04-24T01:56:12.178Z,15.50
2018-04-24T01:57:16.467Z,11.50
2018-04-24T01:58:20.575Z,23.00
2018-04-24T01:59:24.683Z,15.00
2018-04-24T02:00:29.315Z,21.00
2018-04-24T02:01:33.493Z,21.50
2018-04-24T02:02:37.659Z,12.00
2018-04-24T02:03:41.813Z,15.50
2018-04-24T02:04:46.149Z,14.50
2018-04-24T02:05:50.261Z,23.00
2018-04-24T02:06:54.793Z,25.00
2018-04-24T02:07:58.991Z,22.50
2018-04-24T02:09:03.125Z,21.50
2018-04-24T02:10:07.828Z,22.50
2018-04-24T02:11:11.933Z,39.50
2018-04-24T02:12:17.016Z,37.50
2018-04-24T02:13:21.191Z,42.50
2018-04-24T02:14:25.377Z,20.50
2018-04-24T02:15:29.919Z,23.50
2018-04-24T02:16:34.441Z,28.00
2018-04-24T02:17:38.561Z,28.00
2018-04-24T02:18:43.299Z,22.00
2018-04-24T02:19:47.422Z,30.50
2018-04-24T02:20:51.929Z,28.00
2018-04-24T02:21:56.443Z,21.00
2018-04-24T02:23:00.953Z,27.50
2018-04-24T02:24:05.107Z,19.00
2018-04-24T02:25:09.883Z,31.50
2018-04-24T02:26:15.125Z,34.00
2018-04-24T02:27:19.892Z,26.00
2018-04-24T02:28:24.682Z,23.00
2018-04-24T02:29:29.041Z,37.00
2018-04-24T02:30:33.769Z,29.00
2018-04-24T02:31:38.706Z,32.00
2018-04-24T02:32:43.110Z,23.00
2018-04-24T02:33:47.716Z,25.00
2018-04-24T02:34:52.236Z,28.00
2018-04-24T02:35:56.357Z,22.00
2018-04-24T02:37:00.863Z,25.50
2018-04-24T02:38:05.678Z,26.50
2018-04-24T02:39:10.478Z,14.50
2018-04-24T02:40:15.177Z,27.00
2018-04-24T02:41:19.293Z,35.00
2018-04-24T02:42:23.525Z,32.50
2018-04-24T02:43:27.975Z,28.50
2018-04-24T02:44:32.124Z,23.50
2018-04-24T02:45:37.501Z,38.50
2018-04-24T02:46:41.726Z,26.50
2018-04-24T02:47:45.854Z,35.50
2018-04-24T02:48:50.003Z,28.50
2018-04-24T02:49:54.510Z,23.50
2018-04-24T02:50:58.627Z,32.50
2018-04-24T02:52:02.749Z,27.00
2018-04-24T02:53:08.353Z,36.00
2018-04-24T02:54:13.886Z,33.50
2018-04-24T02:55:18.276Z,20.50
2018-04-24T02:56:23.225Z,37.50
2018-04-24T02:57:27.439Z,39.00
2018-04-24T02:58:32.002Z,26.50
2018-04-24T02:59:36.427Z,31.00
2018-04-24T03:00:40.931Z,25.00
2018-04-24T03:01:45.567Z,47.00
2018-04-24T03:02:49.755Z,28.50
2018-04-24T03:03:54.095Z,32.50
2018-04-24T03:04:58.325Z,29.00
2018-04-24T03:06:02.492Z,41.00
2018-04-24T03:07:06.678Z,39.00
2018-04-24T03:08:12.218Z,45.00
2018-04-24T03:09:16.446Z,37.50
2018-04-24T03:10:20.590Z,29.50
2018-04-24T03:11:24.811Z,26.00
2018-04-24T03:12:29.160Z,23.00
2018-04-24T03:13:33.626Z,27.00
2018-04-24T03:14:37.742Z,36.00
2018-04-24T03:15:42.266Z,31.50
2018-04-24T03:16:46.430Z,33.50
2018-04-24T03:17:50.554Z,33.50
2018-04-24T03:18:54.842Z,26.00
2018-04-24T03:19:59.270Z,26.00
2018-04-24T03:21:03.453Z,25.50
2018-04-24T03:22:07.613Z,32.00
2018-04-24T03:23:13.360Z,41.50
2018-04-24T03:24:17.626Z,24.00
2018-04-24T03:25:22.000Z,57.00
2018-04-24T03:26:26.721Z,30.50
2018-04-24T03:27:31.072Z,45.50
2018-04-24T03:28:35.930Z,28.50
2018-04-24T03:29:40.166Z,42.00
2018-04-24T03:30:44.593Z,33.00
2018-04-24T03:31:48.957Z,34.00
2018-04-24T03:32:53.570Z,46.50
2018-04-24T03:33:57.710Z,30.50
2018-04-24T03:35:02.595Z,38.00
2018-04-24T03:36:07.077Z,34.50
2018-04-24T03:37:11.691Z,37.50
2018-04-24T03:38:15.927Z,30.50
2018-04-24T03:39:20.335Z,31.50
2018-04-24T03:40:24.549Z,32.00
2018-04-24T03:41:28.689Z,33.00
2018-04-24T03:42:32.795Z,48.50
2018-04-24T03:43:37.043Z,19.00
2018-04-24T03:44:41.465Z,28.00
2018-04-24T03:45:46.117Z,28.50
2018-04-24T03:46:50.271Z,34.00
2018-04-24T03:47:54.512Z,47.00
2018-04-24T03:48:58.769Z,22.50
2018-04-24T03:50:02.919Z,18.50
2018-04-24T03:51:07.368Z,39.50
2018-04-24T03:52:11.521Z,31.00
2018-04-24T03:53:15.731Z,22.00
2018-04-24T03:54:19.893Z,34.00
2018-04-24T03:55:24.041Z,35.50
2018-04-24T03:56:28.181Z,35.50
2018-04-24T03:57:32.663Z,44.00
2018-04-24T03:58:37.091Z,37.00
2018-04-24T03:59:42.113Z,41.00
2018-04-24T04:00:46.567Z,40.50
2018-04-24T04:01:50.712Z,38.00
2018-04-24T04:02:55.408Z,26.00
2018-04-24T04:03:59.633Z,34.00
2018-04-24T04:05:03.808Z,35.00
2018-04-24T04:06:07.931Z,36.00
2018-04-24T04:07:12.867Z,33.50
2018-04-24T04:08:17.794Z,27.50
2018-04-24T04:09:22.283Z,39.50
2018-04-24T04:10:26.551Z,25.50
2018-04-24T04:11:30.785Z,22.00
2018-04-24T04:12:35.045Z,30.50
2018-04-24T04:13:39.174Z,36.00
2018-04-24T04:14:43.315Z,26.00
2018-04-24T04:15:48.700Z,29.50
2018-04-24T04:16:52.824Z,28.50
2018-04-24T04:18:07.822Z,27.00
2018-04-24T04:22:24.541Z,30.50
2018-04-24T04:24:36.399Z,34.00
2018-04-24T04:25:40.653Z,25.50
2018-04-24T04:26:44.757Z,28.00
2018-04-24T04:27:49.222Z,32.00
2018-04-24T04:28:53.539Z,38.50
2018-04-24T04:29:57.727Z,29.50
2018-04-24T04:31:02.109Z,45.00
2018-04-24T04:32:06.231Z,40.00
2018-04-24T04:33:11.719Z,42.00
2018-04-24T04:34:15.867Z,42.00
2018-04-24T04:35:20.629Z,26.00
2018-04-24T04:36:24.857Z,45.00
2018-04-24T04:37:29.143Z,42.50
2018-04-24T04:38:33.257Z,33.00
2018-04-24T04:39:37.901Z,35.50
2018-04-24T04:40:42.127Z,50.00
2018-04-24T04:41:46.383Z,42.50
2018-04-24T04:42:50.561Z,43.50
2018-04-24T04:43:54.731Z,40.50
2018-04-24T04:44:58.953Z,25.00
2018-04-24T04:46:05.420Z,35.00
2018-04-24T04:47:09.690Z,42.50
2018-04-24T04:48:14.298Z,42.00
2018-04-24T04:49:19.361Z,30.00
2018-04-24T04:50:23.601Z,50.50
2018-04-24T04:51:27.801Z,41.00
2018-04-24T04:52:32.257Z,28.00
2018-04-24T04:53:36.381Z,33.00
2018-04-24T04:54:40.518Z,26.00
2018-04-24T04:55:45.291Z,51.00
2018-04-24T04:56:49.427Z,41.00
2018-04-24T04:57:55.089Z,21.00
2018-04-24T04:59:00.012Z,43.00
2018-04-24T05:00:05.827Z,36.00
2018-04-24T05:01:10.188Z,32.00
2018-04-24T05:02:14.443Z,45.50
2018-04-24T05:03:19.098Z,35.00
2018-04-24T05:04:24.116Z,31.50
2018-04-24T05:05:28.530Z,42.50
2018-04-24T05:06:32.930Z,42.50
2018-04-24T05:07:37.072Z,33.00
2018-04-24T05:08:41.280Z,42.50
2018-04-24T05:09:45.529Z,43.50
2018-04-24T05:10:49.698Z,40.00
2018-04-24T05:11:54.242Z,43.00
2018-04-24T05:12:58.512Z,33.00
2018-04-24T05:14:02.663Z,45.50
2018-04-24T05:15:06.978Z,44.00
2018-04-24T05:16:11.589Z,24.00
2018-04-24T05:17:16.286Z,20.50
2018-04-24T05:18:20.835Z,43.50
2018-04-24T05:19:24.979Z,37.00
2018-04-24T05:20:29.105Z,47.00
2018-04-24T05:21:33.263Z,52.00
2018-04-24T05:22:37.497Z,29.00
2018-04-24T05:23:41.614Z,30.50
2018-04-24T05:24:46.151Z,40.00
2018-04-24T05:25:50.385Z,52.50
2018-04-24T05:26:54.554Z,32.50
2018-04-24T05:27:58.701Z,37.50
2018-04-24T05:29:02.845Z,44.00
2018-04-24T05:30:17.691Z,48.50
2018-04-24T05:31:21.886Z,32.00
2018-04-24T05:32:26.031Z,49.50
2018-04-24T05:33:30.245Z,55.50
2018-04-24T05:34:34.410Z,49.00
2018-04-24T05:35:38.912Z,33.00
2018-04-24T05:36:43.075Z,53.50
2018-04-24T05:37:47.220Z,41.50
2018-04-24T05:38:51.340Z,35.00
2018-04-24T05:39:55.626Z,35.00
2018-04-24T05:40:59.814Z,49.50
2018-04-24T05:42:04.315Z,59.00
2018-04-24T05:43:08.471Z,40.00
2018-04-24T05:44:13.409Z,28.50
2018-04-24T05:45:18.905Z,35.50
2018-04-24T05:46:23.173Z,39.50
2018-04-24T05:47:27.350Z,34.00
2018-04-24T05:48:31.886Z,40.00
2018-04-24T05:49:36.025Z,49.50
2018-04-24T05:50:40.247Z,58.50
2018-04-24T05:51:44.529Z,43.50
2018-04-24T05:52:48.726Z,51.50
2018-04-24T05:53:52.903Z,54.50
2018-04-24T05:54:57.071Z,58.50
2018-04-24T05:56:01.292Z,43.00
2018-04-24T05:57:05.493Z,50.50
2018-04-24T05:58:09.743Z,40.50
2018-04-24T05:59:14.753Z,40.50
2018-04-24T06:00:20.069Z,44.50
2018-04-24T06:01:25.008Z,42.00
2018-04-24T06:02:29.139Z,57.00
2018-04-24T06:03:33.272Z,39.50
2018-04-24T06:04:38.050Z,37.50
2018-04-24T06:05:42.181Z,44.00
2018-04-24T06:06:46.697Z,49.00
2018-04-24T06:07:50.849Z,44.50
2018-04-24T06:08:54.997Z,43.00
2018-04-24T06:09:59.371Z,43.50
2018-04-24T06:11:03.564Z,45.50
2018-04-24T06:12:07.825Z,36.00
2018-04-24T06:13:12.271Z,41.00
2018-04-24T06:14:16.407Z,24.00
2018-04-24T06:15:20.978Z,63.50
2018-04-24T06:16:25.411Z,47.00
2018-04-24T06:17:29.634Z,46.00
2018-04-24T06:18:33.779Z,55.00
2018-04-24T06:19:37.890Z,43.50
2018-04-24T06:20:41.997Z,36.00
2018-04-24T06:21:46.117Z,29.50
2018-04-24T06:22:50.409Z,42.50
2018-04-24T06:23:54.529Z,42.00
2018-04-24T06:24:58.669Z,52.50
2018-04-24T06:26:03.183Z,56.00
2018-04-24T06:27:07.414Z,34.50
2018-04-24T06:28:11.593Z,38.50
2018-04-24T06:29:15.717Z,45.00
2018-04-24T06:30:20.115Z,44.00
2018-04-24T06:31:24.223Z,49.50
2018-04-24T06:32:28.773Z,64.50
2018-04-24T06:33:33.155Z,46.50
2018-04-24T06:34:37.316Z,41.00
2018-04-24T06:35:41.481Z,58.00
2018-04-24T06:36:45.694Z,41.50
2018-04-24T06:37:50.025Z,56.50
2018-04-24T06:38:54.464Z,51.00
2018-04-24T06:39:58.670Z,60.00
2018-04-24T06:41:02.829Z,47.00
2018-04-24T06:42:07.249Z,43.00
2018-04-24T06:43:11.429Z,29.00
2018-04-24T06:44:15.712Z,46.50
2018-04-24T06:45:20.631Z,86.00
2018-04-24T06:46:25.000Z,59.00
2018-04-24T06:47:29.218Z,51.00
2018-04-24T06:48:33.387Z,54.50
2018-04-24T06:49:37.687Z,48.50
2018-04-24T06:50:41.893Z,34.00
2018-04-24T06:51:46.351Z,63.50
2018-04-24T06:52:50.629Z,57.00
2018-04-24T06:53:54.769Z,60.00
2018-04-24T06:54:58.926Z,45.50
2018-04-24T06:56:03.221Z,38.50
2018-04-24T06:57:07.482Z,56.00
2018-04-24T06:58:11.964Z,43.00
2018-04-24T06:59:16.093Z,57.00
2018-04-24T07:00:21.419Z,52.50
2018-04-24T07:01:25.635Z,23.50
2018-04-24T07:02:29.761Z,43.50
2018-04-24T07:03:34.019Z,44.50
2018-04-24T07:04:38.469Z,50.00
2018-04-24T07:05:42.616Z,30.50
2018-04-24T07:06:46.815Z,26.50
2018-04-24T07:07:50.987Z,68.00
2018-04-24T07:08:55.240Z,51.50
2018-04-24T07:09:59.363Z,44.00
2018-04-24T07:11:03.623Z,46.00
2018-04-24T07:12:07.797Z,35.00
2018-04-24T07:13:11.925Z,53.00
2018-04-24T07:14:16.072Z,44.00
2018-04-24T07:15:21.400Z,72.50
2018-04-24T07:16:25.572Z,53.00
2018-04-24T07:17:30.674Z,55.00
2018-04-24T07:18:34.830Z,41.00
2018-04-24T07:19:38.991Z,31.00
2018-04-24T07:20:43.392Z,49.50
2018-04-24T07:21:47.914Z,38.50
2018-04-24T07:22:52.380Z,32.00
2018-04-24T07:23:56.536Z,42.50
2018-04-24T07:25:00.802Z,51.00
2018-04-24T07:26:05.073Z,37.00
2018-04-24T07:27:09.305Z,60.00
2018-04-24T07:28:13.828Z,66.00
2018-04-24T07:29:17.999Z,56.50
2018-04-24T07:30:22.980Z,61.00
2018-04-24T07:31:27.933Z,60.50
2018-04-24T07:32:32.392Z,38.50
2018-04-24T07:33:36.522Z,61.50
2018-04-24T07:34:41.000Z,35.00
2018-04-24T07:35:45.252Z,53.50
2018-04-24T07:36:49.401Z,55.50
2018-04-24T07:37:53.555Z,48.00
2018-04-24T07:38:57.707Z,55.00
2018-04-24T07:40:01.989Z,43.00
2018-04-24T07:41:06.222Z,65.00
2018-04-24T07:42:10.387Z,71.00
2018-04-24T07:43:14.585Z,73.00
2018-04-24T07:44:18.739Z,46.50
2018-04-24T07:45:24.006Z,82.00
2018-04-24T07:46:29.251Z,49.50
2018-04-24T07:47:33.802Z,42.00
2018-04-24T07:48:37.967Z,62.50
2018-04-24T07:49:42.188Z,55.50
2018-04-24T07:50:46.348Z,45.50
2018-04-24T07:51:50.485Z,44.00
2018-04-24T07:52:54.720Z,59.50
2018-04-24T07:53:59.192Z,54.00
2018-04-24T07:55:03.481Z,37.00
2018-04-24T07:56:07.696Z,31.00
2018-04-24T07:57:12.001Z,51.00
2018-04-24T07:58:16.129Z,49.50
2018-04-24T07:59:20.413Z,66.50
2018-04-24T08:00:25.228Z,87.50
2018-04-24T08:01:30.163Z,42.00
2018-04-24T08:02:34.329Z,31.50
2018-04-24T08:03:38.458Z,39.50
2018-04-24T08:04:43.499Z,47.00
2018-04-24T08:05:47.685Z,64.00
2018-04-24T08:06:52.123Z,37.00
2018-04-24T08:07:56.277Z,59.50
2018-04-24T08:09:00.567Z,34.50
2018-04-24T08:10:04.895Z,42.50
2018-04-24T08:11:09.105Z,52.00
2018-04-24T08:12:13.501Z,33.00
2018-04-24T08:13:17.943Z,43.50
2018-04-24T08:14:22.081Z,35.50
2018-04-24T08:15:26.512Z,56.50
2018-04-24T08:16:30.746Z,46.50
2018-04-24T08:17:34.890Z,36.00
2018-04-24T08:18:39.043Z,35.50
2018-04-24T08:19:43.603Z,50.00
2018-04-24T08:20:47.757Z,39.00
2018-04-24T08:21:51.889Z,55.50
2018-04-24T08:22:56.210Z,30.50
2018-04-24T08:24:00.326Z,31.50
2018-04-24T08:25:04.594Z,41.50
2018-04-24T08:26:08.960Z,53.00
2018-04-24T08:27:13.127Z,43.50
2018-04-24T08:28:17.323Z,29.50
2018-04-24T08:29:22.209Z,45.50
2018-04-24T08:30:26.864Z,37.00
2018-04-24T08:31:31.086Z,50.50
2018-04-24T08:32:36.122Z,34.00
2018-04-24T08:33:40.291Z,34.00
2018-04-24T08:34:44.428Z,29.00
2018-04-24T08:35:48.583Z,39.50
2018-04-24T08:36:52.840Z,50.00
2018-04-24T08:37:57.037Z,47.00
2018-04-24T08:39:01.510Z,34.00
2018-04-24T08:40:05.709Z,40.00
2018-04-24T08:41:09.859Z,40.50
2018-04-24T08:42:14.115Z,41.00
2018-04-24T08:43:18.241Z,50.50
2018-04-24T08:44:22.379Z,46.00
2018-04-24T08:45:27.836Z,63.00
2018-04-24T08:46:33.570Z,54.00
2018-04-24T08:47:37.705Z,51.50
2018-04-24T08:48:41.981Z,62.00
2018-04-24T08:49:46.141Z,53.50
2018-04-24T08:50:50.279Z,48.50
2018-04-24T08:51:54.531Z,47.50
2018-04-24T08:52:58.665Z,39.00
2018-04-24T08:54:03.092Z,43.00
2018-04-24T08:55:07.233Z,41.00
2018-04-24T08:56:11.545Z,65.00
2018-04-24T08:57:15.691Z,57.00
2018-04-24T08:58:20.169Z,39.50
2018-04-24T08:59:24.389Z,42.00
2018-04-24T09:00:29.460Z,53.00
2018-04-24T09:01:34.237Z,35.00
2018-04-24T09:02:38.673Z,41.50
2018-04-24T09:03:42.822Z,49.50
2018-04-24T09:04:47.256Z,44.50
2018-04-24T09:05:52.208Z,47.00
2018-04-24T09:06:56.336Z,36.00
2018-04-24T09:08:00.506Z,49.00
2018-04-24T09:09:06.476Z,32.50
2018-04-24T09:10:10.614Z,37.00
2018-04-24T09:11:14.803Z,46.00
2018-04-24T09:12:19.102Z,34.00
2018-04-24T09:13:23.266Z,44.00
2018-04-24T09:14:27.522Z,55.00
2018-04-24T09:15:32.346Z,56.00
2018-04-24T09:16:36.832Z,36.00
2018-04-24T09:17:41.138Z,45.50
2018-04-24T09:18:45.244Z,33.50
2018-04-24T09:19:49.463Z,36.00
2018-04-24T09:20:53.606Z,46.50
2018-04-24T09:21:57.828Z,31.50
2018-04-24T09:23:01.979Z,37.50
2018-04-24T09:24:06.225Z,48.50
2018-04-24T09:25:10.381Z,58.50
2018-04-24T09:26:14.534Z,53.00
2018-04-24T09:27:18.689Z,39.00
2018-04-24T09:28:23.151Z,54.00
2018-04-24T09:29:27.404Z,40.50
2018-04-24T09:30:31.927Z,49.00
2018-04-24T09:31:40.090Z,49.00
2018-04-24T09:32:44.196Z,47.50
2018-04-24T09:33:48.357Z,44.50
2018-04-24T09:34:52.943Z,32.00
2018-04-24T09:35:57.108Z,38.00
2018-04-24T09:37:01.261Z,36.50
2018-04-24T09:38:05.495Z,37.50
2018-04-24T09:39:09.642Z,41.50
2018-04-24T09:40:13.903Z,41.50
2018-04-24T09:41:18.351Z,57.00
2018-04-24T09:42:22.489Z,35.50
2018-04-24T09:43:26.609Z,59.50
2018-04-24T09:44:30.759Z,39.00
2018-04-24T09:45:35.291Z,39.50
2018-04-24T09:46:39.499Z,36.50
2018-04-24T09:47:43.705Z,50.00
2018-04-24T09:48:47.861Z,52.00
2018-04-24T09:49:52.036Z,48.50
2018-04-24T09:50:56.177Z,53.50
2018-04-24T09:52:00.445Z,41.00
2018-04-24T09:53:04.644Z,45.00
2018-04-24T09:54:09.137Z,48.50
2018-04-24T09:55:13.268Z,48.50
2018-04-24T09:56:17.432Z,63.00
2018-04-24T09:57:21.659Z,40.50
2018-04-24T09:58:26.004Z,47.00
2018-04-24T09:59:30.178Z,46.00
2018-04-24T10:00:37.453Z,53.50
2018-04-24T10:01:42.245Z,42.00
2018-04-24T10:02:46.622Z,57.50
2018-04-24T10:03:50.807Z,38.50
2018-04-24T10:04:54.930Z,38.50
2018-04-24T10:05:59.138Z,51.00
2018-04-24T10:07:03.596Z,57.50
2018-04-24T10:08:07.804Z,50.50
2018-04-24T10:09:12.045Z,45.00
2018-04-24T10:10:16.188Z,51.50
2018-04-24T10:11:20.305Z,62.50
2018-04-24T10:12:25.508Z,38.00
2018-04-24T10:13:29.803Z,51.50
2018-04-24T10:14:33.886Z,60.50
2018-04-24T10:15:38.026Z,53.50
2018-04-24T10:16:42.243Z,45.50
2018-04-24T10:17:46.387Z,41.00
2018-04-24T10:18:50.848Z,52.00
2018-04-24T10:19:55.012Z,67.50
2018-04-24T10:20:59.212Z,53.50
2018-04-24T10:22:03.424Z,51.00
2018-04-24T10:23:07.619Z,51.50
2018-04-24T10:24:11.757Z,52.00
2018-04-24T10:25:16.207Z,62.50
2018-04-24T10:26:20.354Z,51.00
2018-04-24T10:27:24.664Z,42.00
2018-04-24T10:28:29.893Z,59.50
2018-04-24T10:29:34.026Z,60.50
2018-04-24T10:30:38.590Z,50.00
2018-04-24T10:31:42.839Z,47.00
2018-04-24T10:32:47.007Z,43.50
2018-04-24T10:33:51.142Z,54.50
2018-04-24T10:34:55.287Z,68.50
2018-04-24T10:35:59.523Z,47.00
2018-04-24T10:37:03.968Z,58.50
2018-04-24T10:38:08.104Z,48.00
2018-04-24T10:39:12.375Z,40.00
2018-04-24T10:40:16.580Z,44.00
2018-04-24T10:41:20.732Z,55.00
2018-04-24T10:42:24.949Z,58.00
2018-04-24T10:43:29.385Z,54.00
2018-04-24T10:44:33.641Z,63.50
2018-04-24T10:45:38.102Z,60.50
2018-04-24T10:46:42.491Z,53.00
2018-04-24T10:47:46.630Z,59.00
2018-04-24T10:48:50.823Z,49.00
2018-04-24T10:49:55.381Z,59.00
2018-04-24T10:50:59.665Z,44.50
2018-04-24T10:52:03.812Z,45.50
2018-04-24T10:53:08.045Z,60.00
2018-04-24T10:54:12.210Z,49.00
2018-04-24T10:55:16.738Z,55.50
2018-04-24T10:56:20.900Z,45.50
2018-04-24T10:57:25.167Z,37.50
2018-04-24T10:58:29.314Z,61.00
2018-04-24T10:59:33.461Z,43.00
2018-04-24T11:00:38.021Z,48.50
2018-04-24T11:01:42.470Z,68.00
2018-04-24T11:02:46.756Z,52.50
2018-04-24T11:03:50.906Z,51.00
2018-04-24T11:04:55.062Z,56.00
2018-04-24T11:05:59.242Z,54.50
2018-04-24T11:07:03.502Z,51.50
2018-04-24T11:08:07.754Z,56.00
2018-04-24T11:09:11.896Z,44.50
2018-04-24T11:10:16.059Z,62.50
2018-04-24T11:11:20.205Z,59.00
2018-04-24T11:12:25.301Z,63.50
2018-04-24T11:13:29.559Z,36.50
2018-04-24T11:14:34.721Z,58.00
2018-04-24T11:15:39.387Z,55.00
2018-04-24T11:16:44.135Z,66.00
2018-04-24T11:17:48.631Z,71.50
2018-04-24T11:18:53.063Z,57.50
2018-04-24T11:19:57.522Z,55.50
2018-04-24T11:21:02.017Z,60.00
2018-04-24T11:22:06.157Z,58.50
2018-04-24T11:23:10.293Z,68.50
2018-04-24T11:24:14.573Z,38.50
2018-04-24T11:25:18.707Z,50.00
2018-04-24T11:26:22.931Z,41.00
2018-04-24T11:27:27.390Z,45.50
2018-04-24T11:28:32.321Z,48.50
2018-04-24T11:29:36.570Z,46.00
2018-04-24T11:30:41.033Z,58.50
2018-04-24T11:31:45.209Z,61.50
2018-04-24T11:32:49.382Z,58.50
2018-04-24T11:33:53.514Z,36.00
2018-04-24T11:34:57.676Z,38.00
2018-04-24T11:36:01.823Z,60.00
2018-04-24T11:37:06.018Z,57.00
2018-04-24T11:38:10.172Z,62.00
2018-04-24T11:39:14.324Z,52.00
2018-04-24T11:40:18.841Z,63.50
2018-04-24T11:41:22.988Z,65.00
2018-04-24T11:42:27.135Z,33.00
2018-04-24T11:43:31.279Z,41.00
2018-04-24T11:44:35.512Z,59.00
2018-04-24T11:45:39.947Z,51.50
2018-04-24T11:46:44.398Z,61.00
2018-04-24T11:47:48.629Z,58.00
2018-04-24T11:48:52.779Z,63.00
2018-04-24T11:49:56.917Z,65.00
2018-04-24T11:51:01.135Z,71.50
2018-04-24T11:52:05.322Z,56.00
2018-04-24T11:53:09.863Z,52.00
2018-04-24T11:54:14.014Z,40.50
2018-04-24T11:55:18.228Z,56.00
2018-04-24T11:56:22.404Z,59.50
2018-04-24T11:57:26.574Z,46.00
2018-04-24T11:58:31.734Z,52.50
2018-04-24T11:59:36.278Z,55.00
2018-04-24T12:00:40.594Z,56.50
2018-04-24T12:01:44.972Z,51.00
2018-04-24T12:02:49.123Z,59.50
2018-04-24T12:03:53.320Z,42.50
2018-04-24T12:04:57.520Z,44.00
2018-04-24T12:06:01.973Z,41.00
2018-04-24T12:07:06.336Z,60.50
2018-04-24T12:08:10.490Z,59.00
2018-04-24T12:09:14.649Z,28.00
2018-04-24T12:10:18.835Z,46.50
2018-04-24T12:11:23.009Z,53.00
2018-04-24T12:12:27.518Z,46.00
2018-04-24T12:13:32.569Z,38.50
2018-04-24T12:14:36.789Z,63.50
2018-04-24T12:15:41.226Z,64.50
2018-04-24T12:16:45.422Z,57.00
2018-04-24T12:17:49.579Z,55.50
2018-04-24T12:18:53.771Z,38.50
2018-04-24T12:19:57.913Z,77.50
2018-04-24T12:21:02.149Z,43.00
2018-04-24T12:22:06.293Z,53.00
2018-04-24T12:23:10.598Z,58.00
2018-04-24T12:24:14.853Z,39.50
2018-04-24T12:25:19.001Z,59.50
2018-04-24T12:26:23.137Z,44.00
2018-04-24T12:27:27.373Z,63.00
2018-04-24T12:28:32.167Z,43.50
2018-04-24T12:29:36.367Z,60.00
2018-04-24T12:30:41.206Z,62.50
2018-04-24T12:31:45.360Z,48.00
2018-04-24T12:32:49.653Z,61.50
2018-04-24T12:33:53.811Z,52.50
2018-04-24T12:34:58.003Z,53.00
2018-04-24T12:36:02.213Z,55.50
2018-04-24T12:37:06.697Z,41.50
2018-04-24T12:38:11.083Z,54.00
2018-04-24T12:39:15.252Z,36.00
2018-04-24T12:40:19.393Z,53.50
2018-04-24T12:41:24.210Z,61.50
2018-04-24T12:42:28.357Z,50.00
2018-04-24T12:43:32.493Z,61.00
2018-04-24T12:44:36.683Z,54.50
2018-04-24T12:45:41.207Z,46.50
2018-04-24T12:46:45.463Z,31.00
2018-04-24T12:47:49.597Z,59.50
2018-04-24T12:48:54.038Z,51.50
2018-04-24T12:49:58.283Z,59.00
2018-04-24T12:51:02.466Z,59.00
2018-04-24T12:52:06.706Z,54.50
2018-04-24T12:53:10.854Z,37.50
2018-04-24T12:54:15.203Z,63.00
2018-04-24T12:55:19.384Z,48.50
2018-04-24T12:56:23.543Z,63.50
2018-04-24T12:57:27.690Z,55.50
2018-04-24T12:58:31.928Z,52.00
2018-04-24T12:59:36.206Z,45.50
2018-04-24T13:00:40.812Z,68.00
2018-04-24T13:01:45.406Z,54.00
2018-04-24T13:02:49.546Z,47.00
2018-04-24T13:03:53.870Z,50.50
2018-04-24T13:04:58.019Z,56.00
2018-04-24T13:06:02.168Z,43.50
2018-04-24T13:07:06.640Z,52.00
2018-04-24T13:08:10.796Z,58.00
2018-04-24T13:09:15.041Z,44.50
2018-04-24T13:10:19.183Z,54.50
2018-04-24T13:11:23.314Z,54.50
2018-04-24T13:12:28.243Z,52.50
2018-04-24T13:13:32.725Z,35.50
2018-04-24T13:14:36.989Z,45.00
2018-04-24T13:15:41.473Z,47.00
2018-04-24T13:16:45.614Z,42.50
2018-04-24T13:17:50.062Z,36.50
2018-04-24T13:18:54.233Z,37.50
2018-04-24T13:19:58.471Z,45.00
2018-04-24T13:21:02.690Z,25.25
2018-04-24T13:22:06.925Z,38.50
2018-04-24T13:23:11.089Z,41.50
2018-04-24T13:24:15.474Z,33.25
2018-04-24T13:25:19.625Z,33.50
2018-04-24T13:26:24.816Z,37.00
2018-04-24T13:27:29.852Z,43.00
2018-04-24T13:28:34.034Z,37.50
2018-04-24T13:29:38.161Z,51.50
2018-04-24T13:30:42.623Z,44.00
2018-04-24T13:31:46.784Z,32.25
2018-04-24T13:32:50.925Z,36.00
2018-04-24T13:33:55.072Z,41.50
2018-04-24T13:34:59.271Z,29.00
2018-04-24T13:36:03.499Z,42.50
2018-04-24T13:37:07.755Z,48.00
2018-04-24T13:38:12.344Z,40.00
2018-04-24T13:39:16.483Z,40.25
2018-04-24T13:40:20.711Z,31.00
2018-04-24T13:41:24.949Z,40.50
2018-04-24T13:42:29.105Z,41.00
2018-04-24T13:43:33.239Z,30.00
2018-04-24T13:44:37.695Z,33.00
2018-04-24T13:45:42.235Z,40.00
2018-04-24T13:46:46.716Z,37.50
2018-04-24T13:47:51.634Z,39.50
2018-04-24T13:48:55.873Z,24.50
2018-04-24T13:50:00.041Z,40.50
2018-04-24T13:51:04.464Z,28.00
2018-04-24T13:52:09.257Z,44.50
2018-04-24T13:53:14.279Z,36.00